sensor_id;sensor_type;location;lat;lon;timestamp;temperature;humidity
33109;HTU21D;19481;51.118;6.940;2023-04-28T00:01:30;12.62;40.62
33109;HTU21D;19481;51.118;6.940;2023-04-28T00:06:31;12.60;41.00
33109;HTU21D;19481;51.118;6.940;2023-04-28T00:11:35;12.61;41.11
33109;HTU21D;19481;51.118;6.940;2023-04-28T00:16:36;12.61;41.18
33109;HTU21D;19481;51.118;6.940;2023-04-28T00:21:38;12.59;41.49
33109;HTU21D;19481;51.118;6.940;2023-04-28T00:26:41;12.58;41.70
33109;HTU21D;19481;51.118;6.940;2023-04-28T00:31:43;12.45;42.39
33109;HTU21D;19481;51.118;6.940;2023-04-28T00:36:45;12.26;42.99
33109;HTU21D;19481;51.118;6.940;2023-04-28T00:41:48;12.19;43.32
33109;HTU21D;19481;51.118;6.940;2023-04-28T00:46:50;12.16;43.14
33109;HTU21D;19481;51.118;6.940;2023-04-28T00:51:51;12.20;43.15
33109;HTU21D;19481;51.118;6.940;2023-04-28T00:56:54;12.19;43.21
33109;HTU21D;19481;51.118;6.940;2023-04-28T01:01:58;12.17;43.47
33109;HTU21D;19481;51.118;6.940;2023-04-28T01:07:01;12.21;43.45
33109;HTU21D;19481;51.118;6.940;2023-04-28T01:12:05;12.21;43.64
33109;HTU21D;19481;51.118;6.940;2023-04-28T01:17:07;12.21;43.72
33109;HTU21D;19481;51.118;6.940;2023-04-28T01:22:09;12.20;43.74
33109;HTU21D;19481;51.118;6.940;2023-04-28T01:27:14;12.13;44.09
33109;HTU21D;19481;51.118;6.940;2023-04-28T01:32:16;12.03;44.51
33109;HTU21D;19481;51.118;6.940;2023-04-28T01:37:18;11.88;45.32
33109;HTU21D;19481;51.118;6.940;2023-04-28T01:42:21;11.84;45.28
33109;HTU21D;19481;51.118;6.940;2023-04-28T01:47:22;11.81;45.82
33109;HTU21D;19481;51.118;6.940;2023-04-28T01:52:24;11.79;46.05
33109;HTU21D;19481;51.118;6.940;2023-04-28T01:57:28;11.77;46.44
33109;HTU21D;19481;51.118;6.940;2023-04-28T02:02:30;11.67;47.15
33109;HTU21D;19481;51.118;6.940;2023-04-28T02:07:31;11.61;47.46
33109;HTU21D;19481;51.118;6.940;2023-04-28T02:12:34;11.49;47.67
33109;HTU21D;19481;51.118;6.940;2023-04-28T02:17:36;11.33;48.44
33109;HTU21D;19481;51.118;6.940;2023-04-28T02:22:38;11.26;48.89
33109;HTU21D;19481;51.118;6.940;2023-04-28T02:27:41;11.16;48.79
33109;HTU21D;19481;51.118;6.940;2023-04-28T02:32:42;11.02;50.29
33109;HTU21D;19481;51.118;6.940;2023-04-28T02:37:44;10.90;53.73
33109;HTU21D;19481;51.118;6.940;2023-04-28T02:42:48;10.87;50.06
33109;HTU21D;19481;51.118;6.940;2023-04-28T02:47:49;10.88;49.83
33109;HTU21D;19481;51.118;6.940;2023-04-28T02:52:51;10.86;50.24
33109;HTU21D;19481;51.118;6.940;2023-04-28T02:57:54;10.82;50.58
33109;HTU21D;19481;51.118;6.940;2023-04-28T03:02:56;10.85;50.43
33109;HTU21D;19481;51.118;6.940;2023-04-28T03:07:58;10.87;50.61
33109;HTU21D;19481;51.118;6.940;2023-04-28T03:13:01;10.83;50.94
33109;HTU21D;19481;51.118;6.940;2023-04-28T03:18:03;10.81;51.32
33109;HTU21D;19481;51.118;6.940;2023-04-28T03:23:04;10.83;51.24
33109;HTU21D;19481;51.118;6.940;2023-04-28T03:28:08;10.77;51.80
33109;HTU21D;19481;51.118;6.940;2023-04-28T03:33:10;10.78;51.24
33109;HTU21D;19481;51.118;6.940;2023-04-28T03:38:11;10.73;51.37
33109;HTU21D;19481;51.118;6.940;2023-04-28T03:43:14;10.71;51.61
33109;HTU21D;19481;51.118;6.940;2023-04-28T03:48:16;10.67;52.14
33109;HTU21D;19481;51.118;6.940;2023-04-28T03:53:18;10.60;53.17
33109;HTU21D;19481;51.118;6.940;2023-04-28T03:58:21;10.45;54.27
33109;HTU21D;19481;51.118;6.940;2023-04-28T04:03:23;10.33;54.81
33109;HTU21D;19481;51.118;6.940;2023-04-28T04:08:26;10.28;54.90
33109;HTU21D;19481;51.118;6.940;2023-04-28T04:13:29;10.25;56.14
33109;HTU21D;19481;51.118;6.940;2023-04-28T04:18:31;10.29;54.68
33109;HTU21D;19481;51.118;6.940;2023-04-28T04:23:35;10.34;54.99
33109;HTU21D;19481;51.118;6.940;2023-04-28T04:28:38;10.39;54.45
33109;HTU21D;19481;51.118;6.940;2023-04-28T04:33:40;10.44;54.55
33109;HTU21D;19481;51.118;6.940;2023-04-28T04:38:42;10.52;54.31
33109;HTU21D;19481;51.118;6.940;2023-04-28T04:43:45;10.62;53.52
33109;HTU21D;19481;51.118;6.940;2023-04-28T04:48:46;10.65;54.17
33109;HTU21D;19481;51.118;6.940;2023-04-28T04:53:48;10.71;53.88
33109;HTU21D;19481;51.118;6.940;2023-04-28T04:58:51;10.78;53.33
33109;HTU21D;19481;51.118;6.940;2023-04-28T05:03:53;10.83;53.30
33109;HTU21D;19481;51.118;6.940;2023-04-28T05:08:54;10.88;54.99
33109;HTU21D;19481;51.118;6.940;2023-04-28T05:13:59;10.92;53.64
33109;HTU21D;19481;51.118;6.940;2023-04-28T05:19:00;10.92;53.60
33109;HTU21D;19481;51.118;6.940;2023-04-28T05:24:02;10.95;53.72
33109;HTU21D;19481;51.118;6.940;2023-04-28T05:29:05;10.96;54.59
33109;HTU21D;19481;51.118;6.940;2023-04-28T05:34:07;10.96;54.00
33109;HTU21D;19481;51.118;6.940;2023-04-28T05:39:09;10.96;54.30
33109;HTU21D;19481;51.118;6.940;2023-04-28T05:44:12;10.97;54.23
33109;HTU21D;19481;51.118;6.940;2023-04-28T05:49:13;10.99;54.35
33109;HTU21D;19481;51.118;6.940;2023-04-28T05:54:15;11.03;54.41
33109;HTU21D;19481;51.118;6.940;2023-04-28T05:59:18;11.10;54.57
33109;HTU21D;19481;51.118;6.940;2023-04-28T06:04:20;11.15;54.96
33109;HTU21D;19481;51.118;6.940;2023-04-28T06:09:21;11.29;55.35
33109;HTU21D;19481;51.118;6.940;2023-04-28T06:14:24;11.45;58.03
33109;HTU21D;19481;51.118;6.940;2023-04-28T06:19:26;11.46;57.90
33109;HTU21D;19481;51.118;6.940;2023-04-28T06:24:28;11.57;58.47
33109;HTU21D;19481;51.118;6.940;2023-04-28T06:29:31;11.58;57.46
33109;HTU21D;19481;51.118;6.940;2023-04-28T06:34:33;11.57;55.69
33109;HTU21D;19481;51.118;6.940;2023-04-28T06:39:34;11.74;61.96
33109;HTU21D;19481;51.118;6.940;2023-04-28T06:44:38;11.90;56.00
33109;HTU21D;19481;51.118;6.940;2023-04-28T06:49:40;12.07;54.91
33109;HTU21D;19481;51.118;6.940;2023-04-28T06:54:43;12.20;60.90
33109;HTU21D;19481;51.118;6.940;2023-04-28T06:59:46;12.30;56.02
33109;HTU21D;19481;51.118;6.940;2023-04-28T07:04:48;12.45;55.02
33109;HTU21D;19481;51.118;6.940;2023-04-28T07:09:50;12.46;55.62
33109;HTU21D;19481;51.118;6.940;2023-04-28T07:14:54;12.21;56.64
33109;HTU21D;19481;51.118;6.940;2023-04-28T07:19:56;12.27;56.26
33109;HTU21D;19481;51.118;6.940;2023-04-28T07:24:57;12.36;56.79
33109;HTU21D;19481;51.118;6.940;2023-04-28T07:30:04;12.42;61.15
33109;HTU21D;19481;51.118;6.940;2023-04-28T07:35:06;12.50;55.91
33109;HTU21D;19481;51.118;6.940;2023-04-28T07:40:08;12.72;56.39
33109;HTU21D;19481;51.118;6.940;2023-04-28T07:45:13;12.72;56.10
33109;HTU21D;19481;51.118;6.940;2023-04-28T07:50:16;12.85;57.03
33109;HTU21D;19481;51.118;6.940;2023-04-28T07:55:17;12.72;56.70
33109;HTU21D;19481;51.118;6.940;2023-04-28T08:00:20;12.73;60.18
33109;HTU21D;19481;51.118;6.940;2023-04-28T08:05:22;12.80;57.01
33109;HTU21D;19481;51.118;6.940;2023-04-28T08:10:24;12.77;57.28
33109;HTU21D;19481;51.118;6.940;2023-04-28T08:15:27;12.82;56.95
33109;HTU21D;19481;51.118;6.940;2023-04-28T08:20:28;12.84;57.00
33109;HTU21D;19481;51.118;6.940;2023-04-28T08:25:32;12.78;59.02
33109;HTU21D;19481;51.118;6.940;2023-04-28T08:30:36;12.74;59.68
33109;HTU21D;19481;51.118;6.940;2023-04-28T08:35:38;12.87;58.12
33109;HTU21D;19481;51.118;6.940;2023-04-28T08:40:40;13.17;57.16
33109;HTU21D;19481;51.118;6.940;2023-04-28T08:45:43;13.26;58.20
33109;HTU21D;19481;51.118;6.940;2023-04-28T08:50:48;13.52;62.30
33109;HTU21D;19481;51.118;6.940;2023-04-28T08:55:51;13.62;56.91
33109;HTU21D;19481;51.118;6.940;2023-04-28T09:00:56;13.77;57.33
33109;HTU21D;19481;51.118;6.940;2023-04-28T09:05:57;13.68;57.35
33109;HTU21D;19481;51.118;6.940;2023-04-28T09:11:06;13.63;58.73
33109;HTU21D;19481;51.118;6.940;2023-04-28T09:16:10;13.71;58.13
33109;HTU21D;19481;51.118;6.940;2023-04-28T09:21:12;13.89;59.39
33109;HTU21D;19481;51.118;6.940;2023-04-28T09:26:13;13.83;57.80
33109;HTU21D;19481;51.118;6.940;2023-04-28T09:31:23;13.98;57.95
33109;HTU21D;19481;51.118;6.940;2023-04-28T09:36:27;14.04;57.67
33109;HTU21D;19481;51.118;6.940;2023-04-28T09:41:35;13.92;58.49
33109;HTU21D;19481;51.118;6.940;2023-04-28T09:46:38;13.89;58.91
33109;HTU21D;19481;51.118;6.940;2023-04-28T09:51:40;13.75;59.17
33109;HTU21D;19481;51.118;6.940;2023-04-28T09:56:43;13.59;60.87
33109;HTU21D;19481;51.118;6.940;2023-04-28T10:01:48;13.73;59.77
33109;HTU21D;19481;51.118;6.940;2023-04-28T10:06:50;13.80;59.86
33109;HTU21D;19481;51.118;6.940;2023-04-28T10:11:52;13.64;60.64
33109;HTU21D;19481;51.118;6.940;2023-04-28T10:16:56;13.63;67.48
33109;HTU21D;19481;51.118;6.940;2023-04-28T10:22:09;13.61;68.01
33109;HTU21D;19481;51.118;6.940;2023-04-28T10:27:18;13.66;61.31
33109;HTU21D;19481;51.118;6.940;2023-04-28T10:32:22;13.62;61.86
33109;HTU21D;19481;51.118;6.940;2023-04-28T10:43:01;13.67;62.31
33109;HTU21D;19481;51.118;6.940;2023-04-28T10:48:05;13.85;61.54
33109;HTU21D;19481;51.118;6.940;2023-04-28T10:53:07;13.89;62.21
33109;HTU21D;19481;51.118;6.940;2023-04-28T10:58:33;14.06;69.82
33109;HTU21D;19481;51.118;6.940;2023-04-28T11:03:48;14.38;63.85
33109;HTU21D;19481;51.118;6.940;2023-04-28T11:08:50;14.49;61.48
33109;HTU21D;19481;51.118;6.940;2023-04-28T11:13:53;14.66;61.34
33109;HTU21D;19481;51.118;6.940;2023-04-28T11:19:00;15.04;62.60
33109;HTU21D;19481;51.118;6.940;2023-04-28T11:24:08;15.45;60.32
33109;HTU21D;19481;51.118;6.940;2023-04-28T11:29:11;15.69;60.12
33109;HTU21D;19481;51.118;6.940;2023-04-28T11:34:18;15.80;60.41
33109;HTU21D;19481;51.118;6.940;2023-04-28T11:39:25;16.10;60.14
33109;HTU21D;19481;51.118;6.940;2023-04-28T11:44:29;16.48;59.32
33109;HTU21D;19481;51.118;6.940;2023-04-28T11:49:41;17.18;59.19
33109;HTU21D;19481;51.118;6.940;2023-04-28T11:54:43;17.69;57.32
33109;HTU21D;19481;51.118;6.940;2023-04-28T11:59:45;18.04;57.16
33109;HTU21D;19481;51.118;6.940;2023-04-28T12:04:48;18.52;56.58
33109;HTU21D;19481;51.118;6.940;2023-04-28T12:10:11;18.26;59.39
33109;HTU21D;19481;51.118;6.940;2023-04-28T12:15:13;18.00;58.77
33109;HTU21D;19481;51.118;6.940;2023-04-28T12:20:34;18.39;60.98
33109;HTU21D;19481;51.118;6.940;2023-04-28T12:25:42;19.51;57.04
33109;HTU21D;19481;51.118;6.940;2023-04-28T12:30:43;20.47;57.35
33109;HTU21D;19481;51.118;6.940;2023-04-28T12:35:46;20.65;53.22
33109;HTU21D;19481;51.118;6.940;2023-04-28T12:40:49;20.96;53.29
33109;HTU21D;19481;51.118;6.940;2023-04-28T12:45:51;21.20;53.19
33109;HTU21D;19481;51.118;6.940;2023-04-28T12:50:55;21.54;52.65
33109;HTU21D;19481;51.118;6.940;2023-04-28T12:55:56;21.03;54.68
33109;HTU21D;19481;51.118;6.940;2023-04-28T13:00:58;21.38;53.90
33109;HTU21D;19481;51.118;6.940;2023-04-28T13:06:01;21.20;54.56
33109;HTU21D;19481;51.118;6.940;2023-04-28T13:11:03;21.15;54.64
33109;HTU21D;19481;51.118;6.940;2023-04-28T13:16:05;20.56;56.23
33109;HTU21D;19481;51.118;6.940;2023-04-28T13:21:08;20.89;54.71
33109;HTU21D;19481;51.118;6.940;2023-04-28T13:26:11;21.62;52.67
33109;HTU21D;19481;51.118;6.940;2023-04-28T13:31:12;21.87;52.11
33109;HTU21D;19481;51.118;6.940;2023-04-28T13:36:15;21.83;52.24
33109;HTU21D;19481;51.118;6.940;2023-04-28T13:41:17;21.93;52.24
33109;HTU21D;19481;51.118;6.940;2023-04-28T13:46:19;22.12;51.74
33109;HTU21D;19481;51.118;6.940;2023-04-28T13:51:22;22.46;50.80
33109;HTU21D;19481;51.118;6.940;2023-04-28T13:56:24;22.99;49.60
33109;HTU21D;19481;51.118;6.940;2023-04-28T14:01:26;22.88;50.33
33109;HTU21D;19481;51.118;6.940;2023-04-28T14:06:28;22.36;50.92
33109;HTU21D;19481;51.118;6.940;2023-04-28T14:11:30;22.20;51.75
33109;HTU21D;19481;51.118;6.940;2023-04-28T14:16:32;22.91;49.67
33109;HTU21D;19481;51.118;6.940;2023-04-28T14:21:35;22.48;50.78
33109;HTU21D;19481;51.118;6.940;2023-04-28T14:26:37;22.62;50.13
33109;HTU21D;19481;51.118;6.940;2023-04-28T14:31:39;22.34;50.09
33109;HTU21D;19481;51.118;6.940;2023-04-28T14:36:41;22.14;49.79
33109;HTU21D;19481;51.118;6.940;2023-04-28T14:41:43;21.79;50.69
33109;HTU21D;19481;51.118;6.940;2023-04-28T14:46:45;21.95;49.66
33109;HTU21D;19481;51.118;6.940;2023-04-28T14:51:49;21.78;48.91
33109;HTU21D;19481;51.118;6.940;2023-04-28T14:56:51;21.85;48.80
33109;HTU21D;19481;51.118;6.940;2023-04-28T15:01:52;21.65;49.40
33109;HTU21D;19481;51.118;6.940;2023-04-28T15:06:55;21.31;48.97
33109;HTU21D;19481;51.118;6.940;2023-04-28T15:11:58;21.16;49.93
33109;HTU21D;19481;51.118;6.940;2023-04-28T15:17:00;20.89;50.27
33109;HTU21D;19481;51.118;6.940;2023-04-28T15:22:04;20.83;49.39
33109;HTU21D;19481;51.118;6.940;2023-04-28T15:27:06;20.60;50.31
33109;HTU21D;19481;51.118;6.940;2023-04-28T15:32:08;20.47;50.27
33109;HTU21D;19481;51.118;6.940;2023-04-28T15:37:38;20.72;49.01
33109;HTU21D;19481;51.118;6.940;2023-04-28T15:42:40;20.50;49.90
33109;HTU21D;19481;51.118;6.940;2023-04-28T15:47:45;20.27;50.47
33109;HTU21D;19481;51.118;6.940;2023-04-28T15:52:48;19.98;50.88
33109;HTU21D;19481;51.118;6.940;2023-04-28T15:57:50;19.71;51.44
33109;HTU21D;19481;51.118;6.940;2023-04-28T16:02:52;19.72;51.21
33109;HTU21D;19481;51.118;6.940;2023-04-28T16:07:55;19.29;52.11
33109;HTU21D;19481;51.118;6.940;2023-04-28T16:12:57;19.05;52.07
33109;HTU21D;19481;51.118;6.940;2023-04-28T16:17:59;18.84;52.04
33109;HTU21D;19481;51.118;6.940;2023-04-28T16:23:04;18.44;51.69
33109;HTU21D;19481;51.118;6.940;2023-04-28T16:28:06;18.27;52.29
33109;HTU21D;19481;51.118;6.940;2023-04-28T16:33:07;18.13;52.13
33109;HTU21D;19481;51.118;6.940;2023-04-28T16:38:10;18.09;51.91
33109;HTU21D;19481;51.118;6.940;2023-04-28T16:43:12;17.95;52.04
33109;HTU21D;19481;51.118;6.940;2023-04-28T16:48:14;17.74;52.36
33109;HTU21D;19481;51.118;6.940;2023-04-28T16:53:18;17.63;52.46
33109;HTU21D;19481;51.118;6.940;2023-04-28T16:58:19;17.50;52.57
33109;HTU21D;19481;51.118;6.940;2023-04-28T17:03:21;17.31;52.84
33109;HTU21D;19481;51.118;6.940;2023-04-28T17:08:24;17.26;52.75
33109;HTU21D;19481;51.118;6.940;2023-04-28T17:13:26;17.24;52.66
33109;HTU21D;19481;51.118;6.940;2023-04-28T17:18:27;17.07;53.17
33109;HTU21D;19481;51.118;6.940;2023-04-28T17:23:30;17.14;52.92
33109;HTU21D;19481;51.118;6.940;2023-04-28T17:28:32;17.03;53.24
33109;HTU21D;19481;51.118;6.940;2023-04-28T17:33:34;16.99;53.25
33109;HTU21D;19481;51.118;6.940;2023-04-28T17:38:38;16.78;53.83
33109;HTU21D;19481;51.118;6.940;2023-04-28T17:43:39;16.62;54.19
33109;HTU21D;19481;51.118;6.940;2023-04-28T17:48:41;16.50;54.36
33109;HTU21D;19481;51.118;6.940;2023-04-28T17:53:45;16.45;54.46
33109;HTU21D;19481;51.118;6.940;2023-04-28T17:58:48;16.40;54.52
33109;HTU21D;19481;51.118;6.940;2023-04-28T18:03:49;16.30;54.79
33109;HTU21D;19481;51.118;6.940;2023-04-28T18:08:52;16.33;54.77
33109;HTU21D;19481;51.118;6.940;2023-04-28T18:13:54;16.31;54.91
33109;HTU21D;19481;51.118;6.940;2023-04-28T18:18:57;16.30;55.00
33109;HTU21D;19481;51.118;6.940;2023-04-28T18:24:00;16.18;55.81
33109;HTU21D;19481;51.118;6.940;2023-04-28T18:29:02;16.04;55.71
33109;HTU21D;19481;51.118;6.940;2023-04-28T18:34:03;15.98;55.74
33109;HTU21D;19481;51.118;6.940;2023-04-28T18:39:07;15.88;55.97
33109;HTU21D;19481;51.118;6.940;2023-04-28T18:44:09;15.74;56.55
33109;HTU21D;19481;51.118;6.940;2023-04-28T18:49:10;15.63;57.02
33109;HTU21D;19481;51.118;6.940;2023-04-28T18:54:13;15.61;56.97
33109;HTU21D;19481;51.118;6.940;2023-04-28T18:59:16;15.58;57.09
33109;HTU21D;19481;51.118;6.940;2023-04-28T19:04:17;15.46;57.39
33109;HTU21D;19481;51.118;6.940;2023-04-28T19:09:21;15.42;57.45
33109;HTU21D;19481;51.118;6.940;2023-04-28T19:14:23;15.43;57.48
33109;HTU21D;19481;51.118;6.940;2023-04-28T19:19:24;15.42;57.55
33109;HTU21D;19481;51.118;6.940;2023-04-28T19:24:27;15.42;57.58
33109;HTU21D;19481;51.118;6.940;2023-04-28T19:29:29;15.43;57.60
33109;HTU21D;19481;51.118;6.940;2023-04-28T19:34:31;15.42;57.64
33109;HTU21D;19481;51.118;6.940;2023-04-28T19:39:36;15.42;57.71
33109;HTU21D;19481;51.118;6.940;2023-04-28T19:44:38;15.42;57.76
33109;HTU21D;19481;51.118;6.940;2023-04-28T19:49:39;15.39;57.95
33109;HTU21D;19481;51.118;6.940;2023-04-28T19:54:43;15.39;57.98
33109;HTU21D;19481;51.118;6.940;2023-04-28T19:59:45;15.40;57.90
33109;HTU21D;19481;51.118;6.940;2023-04-28T20:04:47;15.33;58.09
33109;HTU21D;19481;51.118;6.940;2023-04-28T20:09:50;15.30;58.15
33109;HTU21D;19481;51.118;6.940;2023-04-28T20:14:52;15.25;58.32
33109;HTU21D;19481;51.118;6.940;2023-04-28T20:19:53;15.22;58.55
33109;HTU21D;19481;51.118;6.940;2023-04-28T20:24:56;15.19;59.00
33109;HTU21D;19481;51.118;6.940;2023-04-28T20:30:00;15.19;58.65
33109;HTU21D;19481;51.118;6.940;2023-04-28T20:35:01;15.14;58.81
33109;HTU21D;19481;51.118;6.940;2023-04-28T20:40:07;15.15;58.80
33109;HTU21D;19481;51.118;6.940;2023-04-28T20:45:10;15.14;58.76
33109;HTU21D;19481;51.118;6.940;2023-04-28T20:50:12;15.11;58.89
33109;HTU21D;19481;51.118;6.940;2023-04-28T20:55:16;15.07;58.90
33109;HTU21D;19481;51.118;6.940;2023-04-28T21:00:17;15.08;58.87
33109;HTU21D;19481;51.118;6.940;2023-04-28T21:05:19;15.01;59.09
33109;HTU21D;19481;51.118;6.940;2023-04-28T21:10:24;14.99;59.16
33109;HTU21D;19481;51.118;6.940;2023-04-28T21:15:26;14.95;59.33
33109;HTU21D;19481;51.118;6.940;2023-04-28T21:20:28;14.91;59.43
33109;HTU21D;19481;51.118;6.940;2023-04-28T21:25:31;14.86;59.56
33109;HTU21D;19481;51.118;6.940;2023-04-28T21:30:32;14.69;60.07
33109;HTU21D;19481;51.118;6.940;2023-04-28T21:35:34;14.60;60.36
33109;HTU21D;19481;51.118;6.940;2023-04-28T21:40:37;14.47;60.84
33109;HTU21D;19481;51.118;6.940;2023-04-28T21:45:38;14.39;61.02
33109;HTU21D;19481;51.118;6.940;2023-04-28T21:50:40;14.29;61.42
33109;HTU21D;19481;51.118;6.940;2023-04-28T21:55:43;14.14;62.27
33109;HTU21D;19481;51.118;6.940;2023-04-28T22:00:45;14.04;62.21
33109;HTU21D;19481;51.118;6.940;2023-04-28T22:05:47;13.97;62.43
33109;HTU21D;19481;51.118;6.940;2023-04-28T22:10:50;13.94;62.55
33109;HTU21D;19481;51.118;6.940;2023-04-28T22:15:51;13.95;62.48
33109;HTU21D;19481;51.118;6.940;2023-04-28T22:20:55;13.97;62.38
33109;HTU21D;19481;51.118;6.940;2023-04-28T22:25:58;13.93;62.53
33109;HTU21D;19481;51.118;6.940;2023-04-28T22:30:59;13.97;62.54
33109;HTU21D;19481;51.118;6.940;2023-04-28T22:36:01;13.98;62.38
33109;HTU21D;19481;51.118;6.940;2023-04-28T22:41:04;13.96;62.56
33109;HTU21D;19481;51.118;6.940;2023-04-28T22:46:06;13.93;62.78
33109;HTU21D;19481;51.118;6.940;2023-04-28T22:51:07;13.88;63.01
33109;HTU21D;19481;51.118;6.940;2023-04-28T22:56:10;13.89;62.90
33109;HTU21D;19481;51.118;6.940;2023-04-28T23:01:12;13.83;63.11
33109;HTU21D;19481;51.118;6.940;2023-04-28T23:06:13;13.81;63.08
33109;HTU21D;19481;51.118;6.940;2023-04-28T23:11:16;13.67;63.60
33109;HTU21D;19481;51.118;6.940;2023-04-28T23:16:18;13.52;63.37
33109;HTU21D;19481;51.118;6.940;2023-04-28T23:21:20;13.49;63.73
33109;HTU21D;19481;51.118;6.940;2023-04-28T23:26:23;13.47;63.34
33109;HTU21D;19481;51.118;6.940;2023-04-28T23:31:25;13.43;62.80
33109;HTU21D;19481;51.118;6.940;2023-04-28T23:36:27;13.39;62.47
33109;HTU21D;19481;51.118;6.940;2023-04-28T23:41:29;13.37;62.44
33109;HTU21D;19481;51.118;6.940;2023-04-28T23:46:31;13.36;62.18
33109;HTU21D;19481;51.118;6.940;2023-04-28T23:51:33;13.36;61.90
33109;HTU21D;19481;51.118;6.940;2023-04-28T23:56:36;13.31;61.75
